sensor_id;sensor_type;location;lat;lon;timestamp;P1;durP1;ratioP1;P2;durP2;ratioP2
76023;SDS011;64719;52.124;6.226;2024-01-07T00:01:56;49.63;;;19.65;;
76023;SDS011;64719;52.124;6.226;2024-01-07T00:04:23;53.72;;;18.60;;
76023;SDS011;64719;52.124;6.226;2024-01-07T00:06:50;53.72;;;19.58;;
76023;SDS011;64719;52.124;6.226;2024-01-07T00:09:16;53.10;;;18.27;;
76023;SDS011;64719;52.124;6.226;2024-01-07T00:11:42;45.47;;;17.38;;
76023;SDS011;64719;52.124;6.226;2024-01-07T00:14:09;39.67;;;15.20;;
76023;SDS011;64719;52.124;6.226;2024-01-07T00:16:35;39.33;;;17.02;;
76023;SDS011;64719;52.124;6.226;2024-01-07T00:19:01;39.03;;;17.13;;
76023;SDS011;64719;52.124;6.226;2024-01-07T00:21:29;39.85;;;15.98;;
76023;SDS011;64719;52.124;6.226;2024-01-07T00:23:56;41.60;;;16.38;;
76023;SDS011;64719;52.124;6.226;2024-01-07T00:26:22;40.08;;;16.95;;
76023;SDS011;64719;52.124;6.226;2024-01-07T00:28:48;38.33;;;15.60;;
76023;SDS011;64719;52.124;6.226;2024-01-07T00:31:15;37.15;;;15.90;;
76023;SDS011;64719;52.124;6.226;2024-01-07T00:33:41;37.38;;;15.65;;
76023;SDS011;64719;52.124;6.226;2024-01-07T00:36:07;40.15;;;14.77;;
76023;SDS011;64719;52.124;6.226;2024-01-07T00:38:35;44.40;;;15.93;;
76023;SDS011;64719;52.124;6.226;2024-01-07T00:41:01;38.40;;;16.20;;
76023;SDS011;64719;52.124;6.226;2024-01-07T00:43:28;36.05;;;15.68;;
76023;SDS011;64719;52.124;6.226;2024-01-07T00:45:54;38.03;;;16.33;;
76023;SDS011;64719;52.124;6.226;2024-01-07T00:48:20;42.13;;;16.40;;
76023;SDS011;64719;52.124;6.226;2024-01-07T00:50:47;39.72;;;16.67;;
76023;SDS011;64719;52.124;6.226;2024-01-07T00:53:12;42.00;;;17.87;;
76023;SDS011;64719;52.124;6.226;2024-01-07T00:55:40;42.63;;;18.20;;
76023;SDS011;64719;52.124;6.226;2024-01-07T00:58:06;42.88;;;15.13;;
76023;SDS011;64719;52.124;6.226;2024-01-07T01:00:32;43.45;;;15.80;;
76023;SDS011;64719;52.124;6.226;2024-01-07T01:02:59;44.72;;;17.73;;
76023;SDS011;64719;52.124;6.226;2024-01-07T01:05:26;54.28;;;18.77;;
76023;SDS011;64719;52.124;6.226;2024-01-07T01:07:52;50.58;;;18.70;;
76023;SDS011;64719;52.124;6.226;2024-01-07T01:10:18;50.78;;;16.30;;
76023;SDS011;64719;52.124;6.226;2024-01-07T01:12:46;49.75;;;18.30;;
76023;SDS011;64719;52.124;6.226;2024-01-07T01:15:12;46.10;;;18.40;;
76023;SDS011;64719;52.124;6.226;2024-01-07T01:17:41;49.53;;;17.85;;
76023;SDS011;64719;52.124;6.226;2024-01-07T01:20:08;44.22;;;18.25;;
76023;SDS011;64719;52.124;6.226;2024-01-07T01:22:34;44.97;;;16.15;;
76023;SDS011;64719;52.124;6.226;2024-01-07T01:25:00;50.03;;;17.98;;
76023;SDS011;64719;52.124;6.226;2024-01-07T01:27:28;52.72;;;18.83;;
76023;SDS011;64719;52.124;6.226;2024-01-07T01:29:56;42.70;;;18.52;;
76023;SDS011;64719;52.124;6.226;2024-01-07T01:32:22;49.72;;;16.90;;
76023;SDS011;64719;52.124;6.226;2024-01-07T01:34:48;46.35;;;17.08;;
76023;SDS011;64719;52.124;6.226;2024-01-07T01:37:15;33.03;;;13.75;;
76023;SDS011;64719;52.124;6.226;2024-01-07T01:39:41;44.92;;;15.73;;
76023;SDS011;64719;52.124;6.226;2024-01-07T01:42:07;45.80;;;16.45;;
76023;SDS011;64719;52.124;6.226;2024-01-07T01:44:34;40.70;;;13.80;;
76023;SDS011;64719;52.124;6.226;2024-01-07T01:47:01;38.60;;;14.98;;
76023;SDS011;64719;52.124;6.226;2024-01-07T01:49:28;45.78;;;15.95;;
76023;SDS011;64719;52.124;6.226;2024-01-07T01:51:54;34.90;;;13.48;;
76023;SDS011;64719;52.124;6.226;2024-01-07T01:54:20;34.60;;;14.55;;
76023;SDS011;64719;52.124;6.226;2024-01-07T01:56:47;37.53;;;16.13;;
76023;SDS011;64719;52.124;6.226;2024-01-07T01:59:14;28.77;;;11.98;;
76023;SDS011;64719;52.124;6.226;2024-01-07T02:01:41;32.78;;;15.25;;
76023;SDS011;64719;52.124;6.226;2024-01-07T02:04:09;41.15;;;15.40;;
76023;SDS011;64719;52.124;6.226;2024-01-07T02:06:35;33.85;;;14.13;;
76023;SDS011;64719;52.124;6.226;2024-01-07T02:09:02;33.47;;;13.25;;
76023;SDS011;64719;52.124;6.226;2024-01-07T02:11:28;31.98;;;13.95;;
76023;SDS011;64719;52.124;6.226;2024-01-07T02:13:55;29.65;;;13.60;;
76023;SDS011;64719;52.124;6.226;2024-01-07T02:16:21;34.47;;;12.75;;
76023;SDS011;64719;52.124;6.226;2024-01-07T02:18:47;34.22;;;14.35;;
76023;SDS011;64719;52.124;6.226;2024-01-07T02:21:15;33.33;;;14.02;;
76023;SDS011;64719;52.124;6.226;2024-01-07T02:23:42;31.13;;;13.35;;
76023;SDS011;64719;52.124;6.226;2024-01-07T02:26:09;33.38;;;12.90;;
76023;SDS011;64719;52.124;6.226;2024-01-07T02:28:36;29.55;;;13.48;;
76023;SDS011;64719;52.124;6.226;2024-01-07T02:31:02;30.00;;;12.52;;
76023;SDS011;64719;52.124;6.226;2024-01-07T02:33:28;31.05;;;13.07;;
76023;SDS011;64719;52.124;6.226;2024-01-07T02:35:56;33.58;;;13.25;;
76023;SDS011;64719;52.124;6.226;2024-01-07T02:38:22;32.17;;;14.05;;
76023;SDS011;64719;52.124;6.226;2024-01-07T02:40:48;30.15;;;12.13;;
76023;SDS011;64719;52.124;6.226;2024-01-07T02:43:16;24.55;;;11.68;;
76023;SDS011;64719;52.124;6.226;2024-01-07T02:45:42;29.20;;;11.20;;
76023;SDS011;64719;52.124;6.226;2024-01-07T02:48:08;30.55;;;12.77;;
76023;SDS011;64719;52.124;6.226;2024-01-07T02:50:35;24.48;;;10.80;;
76023;SDS011;64719;52.124;6.226;2024-01-07T02:53:01;37.47;;;14.25;;
76023;SDS011;64719;52.124;6.226;2024-01-07T02:55:27;27.23;;;11.13;;
76023;SDS011;64719;52.124;6.226;2024-01-07T02:57:54;30.27;;;12.48;;
76023;SDS011;64719;52.124;6.226;2024-01-07T03:00:21;29.80;;;13.18;;
76023;SDS011;64719;52.124;6.226;2024-01-07T03:02:48;32.25;;;13.23;;
76023;SDS011;64719;52.124;6.226;2024-01-07T03:05:14;27.20;;;12.05;;
76023;SDS011;64719;52.124;6.226;2024-01-07T03:07:40;33.63;;;13.77;;
76023;SDS011;64719;52.124;6.226;2024-01-07T03:10:07;34.42;;;13.98;;
76023;SDS011;64719;52.124;6.226;2024-01-07T03:12:33;34.75;;;14.70;;
76023;SDS011;64719;52.124;6.226;2024-01-07T03:15:00;35.50;;;14.90;;
76023;SDS011;64719;52.124;6.226;2024-01-07T03:17:27;29.30;;;13.68;;
76023;SDS011;64719;52.124;6.226;2024-01-07T03:19:54;27.77;;;12.25;;
76023;SDS011;64719;52.124;6.226;2024-01-07T03:22:20;32.45;;;13.32;;
76023;SDS011;64719;52.124;6.226;2024-01-07T03:24:46;29.13;;;13.23;;
76023;SDS011;64719;52.124;6.226;2024-01-07T03:27:13;28.75;;;12.35;;
76023;SDS011;64719;52.124;6.226;2024-01-07T03:29:39;33.30;;;14.90;;
76023;SDS011;64719;52.124;6.226;2024-01-07T03:32:06;32.50;;;14.00;;
76023;SDS011;64719;52.124;6.226;2024-01-07T03:34:34;27.08;;;11.55;;
76023;SDS011;64719;52.124;6.226;2024-01-07T03:37:00;30.20;;;12.82;;
76023;SDS011;64719;52.124;6.226;2024-01-07T03:39:27;25.88;;;12.23;;
76023;SDS011;64719;52.124;6.226;2024-01-07T03:41:54;32.13;;;13.18;;
76023;SDS011;64719;52.124;6.226;2024-01-07T03:44:20;31.42;;;14.15;;
76023;SDS011;64719;52.124;6.226;2024-01-07T03:46:47;31.90;;;13.63;;
76023;SDS011;64719;52.124;6.226;2024-01-07T03:49:14;28.40;;;12.25;;
76023;SDS011;64719;52.124;6.226;2024-01-07T03:51:41;26.38;;;12.50;;
76023;SDS011;64719;52.124;6.226;2024-01-07T03:54:08;27.83;;;12.02;;
76023;SDS011;64719;52.124;6.226;2024-01-07T03:56:34;29.60;;;13.18;;
76023;SDS011;64719;52.124;6.226;2024-01-07T03:59:00;29.33;;;13.77;;
76023;SDS011;64719;52.124;6.226;2024-01-07T04:01:27;24.13;;;11.18;;
76023;SDS011;64719;52.124;6.226;2024-01-07T04:03:53;26.55;;;12.27;;
76023;SDS011;64719;52.124;6.226;2024-01-07T04:06:20;25.23;;;12.75;;
76023;SDS011;64719;52.124;6.226;2024-01-07T04:08:47;24.35;;;12.80;;
76023;SDS011;64719;52.124;6.226;2024-01-07T04:11:14;27.92;;;13.27;;
76023;SDS011;64719;52.124;6.226;2024-01-07T04:13:40;27.58;;;12.50;;
76023;SDS011;64719;52.124;6.226;2024-01-07T04:16:14;29.02;;;13.32;;
76023;SDS011;64719;52.124;6.226;2024-01-07T04:18:41;25.15;;;11.88;;
76023;SDS011;64719;52.124;6.226;2024-01-07T04:21:08;25.05;;;11.75;;
76023;SDS011;64719;52.124;6.226;2024-01-07T04:23:35;24.17;;;11.18;;
76023;SDS011;64719;52.124;6.226;2024-01-07T04:26:03;24.83;;;11.98;;
76023;SDS011;64719;52.124;6.226;2024-01-07T04:28:29;23.23;;;11.80;;
76023;SDS011;64719;52.124;6.226;2024-01-07T04:30:55;25.73;;;12.85;;
76023;SDS011;64719;52.124;6.226;2024-01-07T04:33:22;25.13;;;10.77;;
76023;SDS011;64719;52.124;6.226;2024-01-07T04:35:48;25.77;;;12.93;;
76023;SDS011;64719;52.124;6.226;2024-01-07T04:38:14;21.20;;;12.10;;
76023;SDS011;64719;52.124;6.226;2024-01-07T04:40:41;24.88;;;11.93;;
76023;SDS011;64719;52.124;6.226;2024-01-07T04:43:08;23.63;;;11.07;;
76023;SDS011;64719;52.124;6.226;2024-01-07T04:45:35;23.15;;;12.40;;
76023;SDS011;64719;52.124;6.226;2024-01-07T04:48:02;25.60;;;12.80;;
76023;SDS011;64719;52.124;6.226;2024-01-07T04:50:28;20.73;;;10.57;;
76023;SDS011;64719;52.124;6.226;2024-01-07T04:52:54;22.00;;;11.02;;
76023;SDS011;64719;52.124;6.226;2024-01-07T04:55:21;17.70;;;9.27;;
76023;SDS011;64719;52.124;6.226;2024-01-07T04:57:47;20.60;;;10.57;;
76023;SDS011;64719;52.124;6.226;2024-01-07T05:00:15;19.77;;;11.02;;
76023;SDS011;64719;52.124;6.226;2024-01-07T05:02:41;22.63;;;10.32;;
76023;SDS011;64719;52.124;6.226;2024-01-07T05:05:08;21.45;;;10.63;;
76023;SDS011;64719;52.124;6.226;2024-01-07T05:07:34;20.27;;;9.77;;
76023;SDS011;64719;52.124;6.226;2024-01-07T05:10:01;23.38;;;11.48;;
76023;SDS011;64719;52.124;6.226;2024-01-07T05:12:28;19.60;;;9.27;;
76023;SDS011;64719;52.124;6.226;2024-01-07T05:14:54;19.42;;;10.02;;
76023;SDS011;64719;52.124;6.226;2024-01-07T05:17:22;18.67;;;9.60;;
76023;SDS011;64719;52.124;6.226;2024-01-07T05:19:48;20.00;;;11.18;;
76023;SDS011;64719;52.124;6.226;2024-01-07T05:22:15;19.83;;;10.38;;
76023;SDS011;64719;52.124;6.226;2024-01-07T05:24:41;21.85;;;10.35;;
76023;SDS011;64719;52.124;6.226;2024-01-07T05:27:08;22.05;;;10.05;;
76023;SDS011;64719;52.124;6.226;2024-01-07T05:29:34;21.60;;;10.70;;
76023;SDS011;64719;52.124;6.226;2024-01-07T05:32:01;20.85;;;10.38;;
76023;SDS011;64719;52.124;6.226;2024-01-07T05:34:29;18.13;;;9.57;;
76023;SDS011;64719;52.124;6.226;2024-01-07T05:36:55;16.08;;;8.50;;
76023;SDS011;64719;52.124;6.226;2024-01-07T05:39:22;22.30;;;11.38;;
76023;SDS011;64719;52.124;6.226;2024-01-07T05:41:48;18.33;;;9.50;;
76023;SDS011;64719;52.124;6.226;2024-01-07T05:44:14;18.08;;;9.30;;
76023;SDS011;64719;52.124;6.226;2024-01-07T05:46:41;21.80;;;10.00;;
76023;SDS011;64719;52.124;6.226;2024-01-07T05:49:08;22.77;;;10.00;;
76023;SDS011;64719;52.124;6.226;2024-01-07T05:51:39;19.88;;;8.40;;
76023;SDS011;64719;52.124;6.226;2024-01-07T05:54:05;19.73;;;9.52;;
76023;SDS011;64719;52.124;6.226;2024-01-07T05:56:31;22.15;;;10.15;;
76023;SDS011;64719;52.124;6.226;2024-01-07T05:58:58;18.10;;;9.13;;
76023;SDS011;64719;52.124;6.226;2024-01-07T06:01:24;17.48;;;9.05;;
76023;SDS011;64719;52.124;6.226;2024-01-07T06:03:52;19.75;;;9.07;;
76023;SDS011;64719;52.124;6.226;2024-01-07T06:06:19;19.52;;;8.35;;
76023;SDS011;64719;52.124;6.226;2024-01-07T06:08:46;15.68;;;8.55;;
76023;SDS011;64719;52.124;6.226;2024-01-07T06:11:13;17.15;;;8.23;;
76023;SDS011;64719;52.124;6.226;2024-01-07T06:13:43;15.50;;;8.95;;
76023;SDS011;64719;52.124;6.226;2024-01-07T06:16:10;15.70;;;9.07;;
76023;SDS011;64719;52.124;6.226;2024-01-07T06:18:36;18.02;;;9.32;;
76023;SDS011;64719;52.124;6.226;2024-01-07T06:21:02;20.63;;;9.82;;
76023;SDS011;64719;52.124;6.226;2024-01-07T06:23:29;15.68;;;8.48;;
76023;SDS011;64719;52.124;6.226;2024-01-07T06:25:57;20.30;;;8.65;;
76023;SDS011;64719;52.124;6.226;2024-01-07T06:28:23;18.08;;;9.80;;
76023;SDS011;64719;52.124;6.226;2024-01-07T06:30:49;19.23;;;9.35;;
76023;SDS011;64719;52.124;6.226;2024-01-07T06:33:16;16.73;;;7.90;;
76023;SDS011;64719;52.124;6.226;2024-01-07T06:35:42;16.13;;;7.68;;
76023;SDS011;64719;52.124;6.226;2024-01-07T06:38:08;15.82;;;8.82;;
76023;SDS011;64719;52.124;6.226;2024-01-07T06:40:35;16.08;;;8.95;;
76023;SDS011;64719;52.124;6.226;2024-01-07T06:43:03;17.40;;;8.18;;
76023;SDS011;64719;52.124;6.226;2024-01-07T06:45:29;14.65;;;7.55;;
76023;SDS011;64719;52.124;6.226;2024-01-07T06:47:55;14.15;;;7.45;;
76023;SDS011;64719;52.124;6.226;2024-01-07T06:50:22;14.65;;;8.02;;
76023;SDS011;64719;52.124;6.226;2024-01-07T06:52:48;12.73;;;7.15;;
76023;SDS011;64719;52.124;6.226;2024-01-07T06:55:14;15.32;;;8.50;;
76023;SDS011;64719;52.124;6.226;2024-01-07T06:57:41;16.70;;;8.13;;
76023;SDS011;64719;52.124;6.226;2024-01-07T07:00:09;15.32;;;8.00;;
76023;SDS011;64719;52.124;6.226;2024-01-07T07:02:35;17.65;;;9.55;;
76023;SDS011;64719;52.124;6.226;2024-01-07T07:05:02;15.82;;;8.20;;
76023;SDS011;64719;52.124;6.226;2024-01-07T07:07:29;16.30;;;7.75;;
76023;SDS011;64719;52.124;6.226;2024-01-07T07:09:56;15.95;;;8.63;;
76023;SDS011;64719;52.124;6.226;2024-01-07T07:12:22;16.58;;;8.48;;
76023;SDS011;64719;52.124;6.226;2024-01-07T07:14:48;17.95;;;9.25;;
76023;SDS011;64719;52.124;6.226;2024-01-07T07:17:16;15.77;;;8.07;;
76023;SDS011;64719;52.124;6.226;2024-01-07T07:19:42;18.60;;;8.93;;
76023;SDS011;64719;52.124;6.226;2024-01-07T07:22:09;18.25;;;9.13;;
76023;SDS011;64719;52.124;6.226;2024-01-07T07:24:38;14.77;;;7.75;;
76023;SDS011;64719;52.124;6.226;2024-01-07T07:27:05;17.83;;;9.55;;
76023;SDS011;64719;52.124;6.226;2024-01-07T07:29:31;17.33;;;8.35;;
76023;SDS011;64719;52.124;6.226;2024-01-07T07:31:57;16.10;;;8.38;;
76023;SDS011;64719;52.124;6.226;2024-01-07T07:34:25;15.82;;;8.50;;
76023;SDS011;64719;52.124;6.226;2024-01-07T07:36:51;14.70;;;6.57;;
76023;SDS011;64719;52.124;6.226;2024-01-07T07:39:18;17.33;;;6.72;;
76023;SDS011;64719;52.124;6.226;2024-01-07T07:41:45;16.02;;;8.52;;
76023;SDS011;64719;52.124;6.226;2024-01-07T07:44:11;18.50;;;8.57;;
76023;SDS011;64719;52.124;6.226;2024-01-07T07:46:37;17.33;;;8.07;;
76023;SDS011;64719;52.124;6.226;2024-01-07T07:49:04;18.60;;;8.40;;
76023;SDS011;64719;52.124;6.226;2024-01-07T07:51:31;13.82;;;7.97;;
76023;SDS011;64719;52.124;6.226;2024-01-07T07:53:58;13.45;;;6.68;;
76023;SDS011;64719;52.124;6.226;2024-01-07T07:56:24;14.77;;;7.10;;
76023;SDS011;64719;52.124;6.226;2024-01-07T07:58:50;14.00;;;7.10;;
76023;SDS011;64719;52.124;6.226;2024-01-07T08:01:17;15.65;;;7.28;;
76023;SDS011;64719;52.124;6.226;2024-01-07T08:03:44;14.55;;;8.82;;
76023;SDS011;64719;52.124;6.226;2024-01-07T08:06:10;12.63;;;7.00;;
76023;SDS011;64719;52.124;6.226;2024-01-07T08:08:38;14.50;;;7.72;;
76023;SDS011;64719;52.124;6.226;2024-01-07T08:11:04;14.15;;;7.60;;
76023;SDS011;64719;52.124;6.226;2024-01-07T08:13:32;10.98;;;6.35;;
76023;SDS011;64719;52.124;6.226;2024-01-07T08:16:00;16.45;;;9.07;;
76023;SDS011;64719;52.124;6.226;2024-01-07T08:18:26;12.43;;;7.47;;
76023;SDS011;64719;52.124;6.226;2024-01-07T08:20:53;14.10;;;7.80;;
76023;SDS011;64719;52.124;6.226;2024-01-07T08:23:20;14.02;;;7.05;;
76023;SDS011;64719;52.124;6.226;2024-01-07T08:25:47;15.20;;;6.95;;
76023;SDS011;64719;52.124;6.226;2024-01-07T08:28:14;14.68;;;7.68;;
76023;SDS011;64719;52.124;6.226;2024-01-07T08:30:40;13.15;;;6.10;;
76023;SDS011;64719;52.124;6.226;2024-01-07T08:33:06;14.68;;;6.22;;
76023;SDS011;64719;52.124;6.226;2024-01-07T08:35:33;12.63;;;6.38;;
76023;SDS011;64719;52.124;6.226;2024-01-07T08:37:59;11.48;;;5.55;;
76023;SDS011;64719;52.124;6.226;2024-01-07T08:40:25;14.05;;;7.05;;
76023;SDS011;64719;52.124;6.226;2024-01-07T08:42:53;14.85;;;6.93;;
76023;SDS011;64719;52.124;6.226;2024-01-07T08:45:19;12.55;;;6.50;;
76023;SDS011;64719;52.124;6.226;2024-01-07T08:47:46;14.07;;;6.75;;
76023;SDS011;64719;52.124;6.226;2024-01-07T08:50:12;12.43;;;7.28;;
76023;SDS011;64719;52.124;6.226;2024-01-07T08:52:38;11.20;;;6.53;;
76023;SDS011;64719;52.124;6.226;2024-01-07T08:55:05;13.80;;;6.75;;
76023;SDS011;64719;52.124;6.226;2024-01-07T08:57:34;14.20;;;7.13;;
76023;SDS011;64719;52.124;6.226;2024-01-07T09:00:02;11.27;;;6.90;;
76023;SDS011;64719;52.124;6.226;2024-01-07T09:02:29;12.68;;;6.00;;
76023;SDS011;64719;52.124;6.226;2024-01-07T09:04:56;13.30;;;6.32;;
76023;SDS011;64719;52.124;6.226;2024-01-07T09:07:23;13.73;;;6.15;;
76023;SDS011;64719;52.124;6.226;2024-01-07T09:09:49;12.63;;;6.13;;
76023;SDS011;64719;52.124;6.226;2024-01-07T09:12:16;9.57;;;5.57;;
76023;SDS011;64719;52.124;6.226;2024-01-07T09:14:44;11.90;;;5.43;;
76023;SDS011;64719;52.124;6.226;2024-01-07T09:17:12;14.73;;;5.82;;
76023;SDS011;64719;52.124;6.226;2024-01-07T09:19:38;11.10;;;6.05;;
76023;SDS011;64719;52.124;6.226;2024-01-07T09:22:05;11.32;;;5.85;;
76023;SDS011;64719;52.124;6.226;2024-01-07T09:24:31;11.40;;;5.53;;
76023;SDS011;64719;52.124;6.226;2024-01-07T09:26:57;7.68;;;4.32;;
76023;SDS011;64719;52.124;6.226;2024-01-07T09:29:24;7.53;;;4.75;;
76023;SDS011;64719;52.124;6.226;2024-01-07T09:31:50;9.63;;;5.35;;
76023;SDS011;64719;52.124;6.226;2024-01-07T09:34:18;9.25;;;4.32;;
76023;SDS011;64719;52.124;6.226;2024-01-07T09:36:44;8.15;;;4.88;;
76023;SDS011;64719;52.124;6.226;2024-01-07T09:39:11;6.65;;;4.82;;
76023;SDS011;64719;52.124;6.226;2024-01-07T09:41:37;11.10;;;4.70;;
76023;SDS011;64719;52.124;6.226;2024-01-07T09:44:04;7.95;;;3.50;;
76023;SDS011;64719;52.124;6.226;2024-01-07T09:46:31;7.88;;;4.68;;
76023;SDS011;64719;52.124;6.226;2024-01-07T09:48:58;8.48;;;4.78;;
76023;SDS011;64719;52.124;6.226;2024-01-07T09:51:26;5.72;;;3.83;;
76023;SDS011;64719;52.124;6.226;2024-01-07T09:53:56;9.13;;;4.53;;
76023;SDS011;64719;52.124;6.226;2024-01-07T09:56:25;5.55;;;3.67;;
76023;SDS011;64719;52.124;6.226;2024-01-07T09:58:51;6.07;;;3.50;;
76023;SDS011;64719;52.124;6.226;2024-01-07T10:01:18;5.13;;;3.50;;
76023;SDS011;64719;52.124;6.226;2024-01-07T10:03:44;8.30;;;3.53;;
76023;SDS011;64719;52.124;6.226;2024-01-07T10:06:11;6.82;;;3.58;;
76023;SDS011;64719;52.124;6.226;2024-01-07T10:08:39;6.30;;;3.97;;
76023;SDS011;64719;52.124;6.226;2024-01-07T10:11:05;5.75;;;3.03;;
76023;SDS011;64719;52.124;6.226;2024-01-07T10:16:00;6.78;;;2.63;;
76023;SDS011;64719;52.124;6.226;2024-01-07T10:18:27;7.32;;;4.03;;
76023;SDS011;64719;52.124;6.226;2024-01-07T10:20:56;5.45;;;2.72;;
76023;SDS011;64719;52.124;6.226;2024-01-07T10:23:28;6.90;;;3.05;;
76023;SDS011;64719;52.124;6.226;2024-01-07T10:25:56;6.25;;;3.78;;
76023;SDS011;64719;52.124;6.226;2024-01-07T10:28:23;4.60;;;2.67;;
76023;SDS011;64719;52.124;6.226;2024-01-07T10:30:49;6.10;;;3.40;;
76023;SDS011;64719;52.124;6.226;2024-01-07T10:33:17;6.03;;;3.70;;
76023;SDS011;64719;52.124;6.226;2024-01-07T10:35:43;5.10;;;3.53;;
76023;SDS011;64719;52.124;6.226;2024-01-07T10:38:12;4.97;;;3.25;;
76023;SDS011;64719;52.124;6.226;2024-01-07T10:40:38;6.78;;;3.50;;
76023;SDS011;64719;52.124;6.226;2024-01-07T10:43:07;4.82;;;3.05;;
76023;SDS011;64719;52.124;6.226;2024-01-07T10:45:33;5.32;;;3.28;;
76023;SDS011;64719;52.124;6.226;2024-01-07T10:48:00;5.65;;;3.30;;
76023;SDS011;64719;52.124;6.226;2024-01-07T10:50:31;4.30;;;3.05;;
76023;SDS011;64719;52.124;6.226;2024-01-07T10:52:58;4.60;;;3.08;;
76023;SDS011;64719;52.124;6.226;2024-01-07T10:55:27;4.97;;;3.05;;
76023;SDS011;64719;52.124;6.226;2024-01-07T10:57:55;5.10;;;2.75;;
76023;SDS011;64719;52.124;6.226;2024-01-07T11:00:23;6.85;;;2.80;;
76023;SDS011;64719;52.124;6.226;2024-01-07T11:02:53;5.30;;;2.45;;
76023;SDS011;64719;52.124;6.226;2024-01-07T11:05:23;5.63;;;2.90;;
76023;SDS011;64719;52.124;6.226;2024-01-07T11:07:53;6.15;;;2.80;;
76023;SDS011;64719;52.124;6.226;2024-01-07T11:10:22;5.13;;;2.70;;
76023;SDS011;64719;52.124;6.226;2024-01-07T11:12:53;5.63;;;3.15;;
76023;SDS011;64719;52.124;6.226;2024-01-07T11:18:02;3.63;;;2.25;;
76023;SDS011;64719;52.124;6.226;2024-01-07T11:20:28;3.80;;;2.00;;
76023;SDS011;64719;52.124;6.226;2024-01-07T11:25:37;6.05;;;1.80;;
76023;SDS011;64719;52.124;6.226;2024-01-07T11:28:04;4.60;;;2.10;;
76023;SDS011;64719;52.124;6.226;2024-01-07T11:30:32;5.05;;;2.38;;
76023;SDS011;64719;52.124;6.226;2024-01-07T11:33:05;2.38;;;1.70;;
76023;SDS011;64719;52.124;6.226;2024-01-07T11:38:16;3.45;;;1.55;;
76023;SDS011;64719;52.124;6.226;2024-01-07T11:40:43;2.58;;;1.67;;
76023;SDS011;64719;52.124;6.226;2024-01-07T11:43:09;3.33;;;2.25;;
76023;SDS011;64719;52.124;6.226;2024-01-07T11:45:36;3.03;;;1.80;;
76023;SDS011;64719;52.124;6.226;2024-01-07T11:48:02;4.03;;;2.17;;
76023;SDS011;64719;52.124;6.226;2024-01-07T11:50:32;4.07;;;1.67;;
76023;SDS011;64719;52.124;6.226;2024-01-07T11:52:58;3.55;;;1.80;;
76023;SDS011;64719;52.124;6.226;2024-01-07T11:55:24;5.50;;;2.33;;
76023;SDS011;64719;52.124;6.226;2024-01-07T11:57:51;2.65;;;1.70;;
76023;SDS011;64719;52.124;6.226;2024-01-07T12:00:18;3.78;;;1.83;;
76023;SDS011;64719;52.124;6.226;2024-01-07T12:02:45;4.68;;;1.90;;
76023;SDS011;64719;52.124;6.226;2024-01-07T12:05:11;3.83;;;1.50;;
76023;SDS011;64719;52.124;6.226;2024-01-07T12:10:08;3.47;;;2.08;;
76023;SDS011;64719;52.124;6.226;2024-01-07T12:12:36;4.07;;;1.60;;
76023;SDS011;64719;52.124;6.226;2024-01-07T12:15:03;3.17;;;1.75;;
76023;SDS011;64719;52.124;6.226;2024-01-07T12:17:30;3.30;;;1.80;;
76023;SDS011;64719;52.124;6.226;2024-01-07T12:19:57;4.13;;;1.48;;
76023;SDS011;64719;52.124;6.226;2024-01-07T12:22:23;2.55;;;1.92;;
76023;SDS011;64719;52.124;6.226;2024-01-07T12:24:59;2.83;;;1.73;;
76023;SDS011;64719;52.124;6.226;2024-01-07T12:27:36;5.18;;;1.80;;
76023;SDS011;64719;52.124;6.226;2024-01-07T12:30:03;3.38;;;2.35;;
76023;SDS011;64719;52.124;6.226;2024-01-07T12:32:30;4.07;;;1.88;;
76023;SDS011;64719;52.124;6.226;2024-01-07T12:34:57;2.20;;;1.50;;
76023;SDS011;64719;52.124;6.226;2024-01-07T12:37:23;3.80;;;1.60;;
76023;SDS011;64719;52.124;6.226;2024-01-07T12:39:51;2.92;;;1.80;;
76023;SDS011;64719;52.124;6.226;2024-01-07T12:42:18;2.72;;;2.05;;
76023;SDS011;64719;52.124;6.226;2024-01-07T12:44:46;2.10;;;1.42;;
76023;SDS011;64719;52.124;6.226;2024-01-07T12:47:13;2.80;;;1.70;;
76023;SDS011;64719;52.124;6.226;2024-01-07T12:49:39;4.28;;;1.70;;
76023;SDS011;64719;52.124;6.226;2024-01-07T12:52:06;2.55;;;1.63;;
76023;SDS011;64719;52.124;6.226;2024-01-07T12:54:32;2.47;;;1.67;;
76023;SDS011;64719;52.124;6.226;2024-01-07T12:56:59;4.63;;;1.75;;
76023;SDS011;64719;52.124;6.226;2024-01-07T12:59:25;3.45;;;1.27;;
76023;SDS011;64719;52.124;6.226;2024-01-07T13:01:53;2.20;;;1.48;;
76023;SDS011;64719;52.124;6.226;2024-01-07T13:04:19;2.88;;;1.42;;
76023;SDS011;64719;52.124;6.226;2024-01-07T13:06:46;2.92;;;1.10;;
76023;SDS011;64719;52.124;6.226;2024-01-07T13:09:12;3.63;;;1.50;;
76023;SDS011;64719;52.124;6.226;2024-01-07T13:11:39;1.70;;;1.10;;
76023;SDS011;64719;52.124;6.226;2024-01-07T13:14:06;2.10;;;1.05;;
76023;SDS011;64719;52.124;6.226;2024-01-07T13:16:33;2.85;;;1.60;;
76023;SDS011;64719;52.124;6.226;2024-01-07T13:19:01;3.78;;;1.20;;
76023;SDS011;64719;52.124;6.226;2024-01-07T13:21:29;2.40;;;1.20;;
76023;SDS011;64719;52.124;6.226;2024-01-07T13:23:56;4.45;;;1.60;;
76023;SDS011;64719;52.124;6.226;2024-01-07T13:26:25;1.88;;;1.05;;
76023;SDS011;64719;52.124;6.226;2024-01-07T13:28:51;3.88;;;2.40;;
76023;SDS011;64719;52.124;6.226;2024-01-07T13:31:18;3.60;;;1.10;;
76023;SDS011;64719;52.124;6.226;2024-01-07T13:33:44;2.30;;;1.38;;
76023;SDS011;64719;52.124;6.226;2024-01-07T13:36:13;4.03;;;1.50;;
76023;SDS011;64719;52.124;6.226;2024-01-07T13:38:39;3.22;;;1.55;;
76023;SDS011;64719;52.124;6.226;2024-01-07T13:41:06;5.40;;;1.60;;
76023;SDS011;64719;52.124;6.226;2024-01-07T13:43:33;2.00;;;1.15;;
76023;SDS011;64719;52.124;6.226;2024-01-07T13:45:59;3.85;;;1.50;;
76023;SDS011;64719;52.124;6.226;2024-01-07T13:48:27;3.13;;;1.30;;
76023;SDS011;64719;52.124;6.226;2024-01-07T13:50:53;1.95;;;1.23;;
76023;SDS011;64719;52.124;6.226;2024-01-07T13:53:21;2.05;;;1.40;;
76023;SDS011;64719;52.124;6.226;2024-01-07T13:55:48;2.25;;;1.52;;
76023;SDS011;64719;52.124;6.226;2024-01-07T13:58:14;2.25;;;1.20;;
76023;SDS011;64719;52.124;6.226;2024-01-07T14:00:41;2.63;;;1.35;;
76023;SDS011;64719;52.124;6.226;2024-01-07T14:03:07;3.88;;;1.55;;
76023;SDS011;64719;52.124;6.226;2024-01-07T14:05:33;2.67;;;1.27;;
76023;SDS011;64719;52.124;6.226;2024-01-07T14:08:00;3.13;;;1.58;;
76023;SDS011;64719;52.124;6.226;2024-01-07T14:10:27;5.63;;;1.92;;
76023;SDS011;64719;52.124;6.226;2024-01-07T14:12:54;2.72;;;1.42;;
76023;SDS011;64719;52.124;6.226;2024-01-07T14:15:20;2.95;;;1.50;;
76023;SDS011;64719;52.124;6.226;2024-01-07T14:17:46;3.67;;;1.60;;
76023;SDS011;64719;52.124;6.226;2024-01-07T14:20:14;2.92;;;1.50;;
76023;SDS011;64719;52.124;6.226;2024-01-07T14:22:40;3.35;;;1.92;;
76023;SDS011;64719;52.124;6.226;2024-01-07T14:25:07;4.88;;;1.80;;
76023;SDS011;64719;52.124;6.226;2024-01-07T14:27:34;5.00;;;1.85;;
76023;SDS011;64719;52.124;6.226;2024-01-07T14:30:01;3.03;;;1.77;;
76023;SDS011;64719;52.124;6.226;2024-01-07T14:32:28;3.13;;;1.98;;
76023;SDS011;64719;52.124;6.226;2024-01-07T14:34:54;5.05;;;1.65;;
76023;SDS011;64719;52.124;6.226;2024-01-07T14:37:20;3.78;;;1.70;;
76023;SDS011;64719;52.124;6.226;2024-01-07T14:39:46;2.42;;;1.30;;
76023;SDS011;64719;52.124;6.226;2024-01-07T14:42:13;2.53;;;1.30;;
76023;SDS011;64719;52.124;6.226;2024-01-07T14:44:40;3.70;;;1.70;;